createdAt,value
2019-04-28T00:00:55.269Z,100.00
2019-04-28T00:03:24.608Z,100.00
2019-04-28T00:05:53.957Z,100.00
2019-04-28T00:08:23.357Z,100.00
2019-04-28T00:10:53.397Z,100.00
2019-04-28T00:13:22.706Z,100.00
2019-04-28T00:15:52.106Z,100.00
2019-04-28T00:18:22.030Z,100.00
2019-04-28T00:21:10.924Z,100.00
2019-04-28T00:23:42.318Z,100.00
2019-04-28T00:26:31.701Z,100.00
2019-04-28T00:29:01.289Z,100.00
2019-04-28T00:31:31.262Z,100.00
2019-04-28T00:34:01.271Z,100.00
2019-04-28T00:36:31.408Z,100.00
2019-04-28T00:39:01.567Z,100.00
2019-04-28T00:41:31.052Z,100.00
2019-04-28T00:44:01.911Z,100.00
2019-04-28T00:46:35.630Z,100.00
2019-04-28T00:49:05.052Z,100.00
2019-04-28T00:51:34.377Z,100.00
2019-04-28T00:54:03.778Z,100.00
2019-04-28T00:56:33.122Z,100.00
2019-04-28T00:59:02.452Z,100.00
2019-04-28T01:01:40.687Z,100.00
2019-04-28T01:04:11.796Z,100.00
2019-04-28T01:06:43.047Z,100.00
2019-04-28T01:09:13.134Z,100.00
2019-04-28T01:11:42.487Z,100.00
2019-04-28T01:14:11.812Z,100.00
2019-04-28T01:16:42.834Z,100.00
2019-04-28T01:19:20.287Z,100.00
2019-04-28T01:21:57.865Z,100.00
2019-04-28T01:24:27.199Z,100.00
2019-04-28T01:26:56.982Z,100.00
2019-04-28T01:29:26.314Z,100.00
2019-04-28T01:32:13.622Z,100.00
2019-04-28T01:34:42.953Z,100.00
2019-04-28T01:37:12.292Z,100.00
2019-04-28T01:39:41.636Z,100.00
2019-04-28T01:42:10.958Z,100.00
2019-04-28T01:44:40.286Z,100.00
2019-04-28T01:47:10.625Z,100.00
2019-04-28T01:49:40.550Z,100.00
2019-04-28T01:52:10.484Z,100.00
2019-04-28T01:54:40.310Z,100.00
2019-04-28T01:57:10.231Z,100.00
2019-04-28T01:59:40.256Z,100.00
2019-04-28T02:02:10.335Z,100.00
2019-04-28T02:04:40.239Z,100.00
2019-04-28T02:07:11.046Z,100.00
2019-04-28T02:09:40.547Z,100.00
2019-04-28T02:12:10.583Z,100.00
2019-04-28T02:14:40.514Z,100.00
2019-04-28T02:17:10.521Z,100.00
2019-04-28T02:19:40.996Z,100.00
2019-04-28T02:22:15.170Z,100.00
2019-04-28T02:24:44.495Z,100.00
2019-04-28T02:27:13.908Z,100.00
2019-04-28T02:29:43.256Z,100.00
2019-04-28T02:32:13.130Z,100.00
2019-04-28T02:34:43.109Z,100.00
2019-04-28T02:37:12.455Z,100.00
2019-04-28T02:39:41.869Z,100.00
2019-04-28T02:42:11.308Z,100.00
2019-04-28T02:44:40.840Z,100.00
2019-04-28T02:47:11.168Z,100.00
2019-04-28T02:50:00.625Z,100.00
2019-04-28T02:52:31.157Z,100.00
2019-04-28T02:55:03.262Z,100.00
2019-04-28T02:57:33.021Z,100.00
2019-04-28T03:00:02.535Z,100.00
2019-04-28T03:02:32.134Z,100.00
2019-04-28T03:05:01.503Z,100.00
2019-04-28T03:07:31.437Z,100.00
2019-04-28T03:10:03.926Z,100.00
2019-04-28T03:12:32.029Z,100.00
2019-04-28T03:15:01.447Z,100.00
2019-04-28T03:17:31.203Z,100.00
2019-04-28T03:20:01.165Z,100.00
2019-04-28T03:22:33.611Z,100.00
2019-04-28T03:25:03.455Z,100.00
2019-04-28T03:27:34.426Z,100.00
2019-04-28T03:30:06.748Z,100.00
2019-04-28T03:32:51.711Z,100.00
2019-04-28T03:35:13.022Z,100.00
2019-04-28T03:37:41.421Z,100.00
2019-04-28T03:40:11.683Z,100.00
2019-04-28T03:42:41.312Z,100.00
2019-04-28T03:45:13.560Z,100.00
2019-04-28T03:47:42.900Z,100.00
2019-04-28T03:50:12.228Z,100.00
2019-04-28T03:52:41.673Z,100.00
2019-04-28T03:55:11.728Z,100.00
2019-04-28T03:57:41.469Z,100.00
2019-04-28T04:00:11.302Z,100.00
2019-04-28T04:02:41.309Z,100.00
2019-04-28T04:05:11.277Z,100.00
2019-04-28T04:07:43.278Z,100.00
2019-04-28T04:10:22.901Z,100.00
2019-04-28T04:12:53.887Z,100.00
2019-04-28T04:15:25.197Z,100.00
2019-04-28T04:18:01.300Z,100.00
2019-04-28T04:20:31.081Z,100.00
2019-04-28T04:23:01.531Z,100.00
2019-04-28T04:25:31.486Z,100.00
2019-04-28T04:28:03.676Z,100.00
2019-04-28T04:30:31.961Z,100.00
2019-04-28T04:33:01.562Z,100.00
2019-04-28T04:35:31.674Z,100.00
2019-04-28T04:38:01.150Z,100.00
2019-04-28T04:40:31.681Z,100.00
2019-04-28T04:43:01.932Z,100.00
2019-04-28T04:45:31.370Z,100.00
2019-04-28T04:48:01.009Z,100.00
2019-04-28T04:50:31.423Z,100.00
2019-04-28T04:53:02.762Z,100.00
2019-04-28T04:55:32.638Z,100.00
2019-04-28T04:58:01.985Z,100.00
2019-04-28T05:00:47.923Z,100.00
2019-04-28T05:03:24.594Z,100.00
2019-04-28T05:05:53.920Z,100.00
2019-04-28T05:08:23.260Z,100.00
2019-04-28T05:10:52.595Z,100.00
2019-04-28T05:13:22.153Z,100.00
2019-04-28T05:15:52.678Z,100.00
2019-04-28T05:18:22.099Z,100.00
2019-04-28T05:20:51.434Z,100.00
2019-04-28T05:23:31.488Z,100.00
2019-04-28T05:26:01.495Z,100.00
2019-04-28T05:28:36.422Z,100.00
2019-04-28T05:31:02.831Z,100.00
2019-04-28T05:33:34.020Z,100.00
2019-04-28T05:36:03.436Z,100.00
2019-04-28T05:38:32.782Z,100.00
2019-04-28T05:41:02.698Z,100.00
2019-04-28T05:43:32.234Z,100.00
2019-04-28T05:46:01.572Z,100.00
2019-04-28T05:48:38.009Z,100.00
2019-04-28T05:51:19.796Z,100.00
2019-04-28T05:54:09.824Z,100.00
2019-04-28T05:56:43.870Z,100.00
2019-04-28T05:59:14.853Z,100.00
2019-04-28T06:01:58.079Z,100.00
2019-04-28T06:04:30.398Z,100.00
2019-04-28T06:07:01.255Z,100.00
2019-04-28T06:09:39.800Z,100.00
2019-04-28T06:12:10.925Z,100.00
2019-04-28T06:14:40.369Z,100.00
2019-04-28T06:17:10.805Z,100.00
2019-04-28T06:19:40.434Z,100.00
2019-04-28T06:22:09.664Z,100.00
2019-04-28T06:24:38.989Z,100.00
2019-04-28T06:27:08.317Z,100.00
2019-04-28T06:29:37.641Z,100.00
2019-04-28T06:32:06.977Z,100.00
2019-04-28T06:34:36.299Z,100.00
2019-04-28T06:37:05.621Z,100.00
2019-04-28T06:39:34.951Z,100.00
2019-04-28T06:42:04.267Z,96.07
2019-04-28T06:44:33.589Z,98.07
2019-04-28T06:47:02.913Z,94.27
2019-04-28T06:49:32.228Z,85.55
2019-04-28T06:52:01.726Z,87.46
2019-04-28T06:54:31.044Z,83.95
2019-04-28T06:57:00.371Z,93.34
2019-04-28T06:59:29.686Z,97.62
2019-04-28T07:01:59.002Z,93.10
2019-04-28T07:04:28.328Z,93.65
2019-04-28T07:06:57.648Z,87.37
2019-04-28T07:09:27.072Z,86.78
2019-04-28T07:11:56.462Z,91.30
2019-04-28T07:14:25.790Z,86.17
2019-04-28T07:16:55.117Z,83.09
2019-04-28T07:19:24.431Z,84.81
2019-04-28T07:22:04.494Z,89.51
2019-04-28T07:24:33.952Z,91.38
2019-04-28T07:27:03.271Z,86.33
2019-04-28T07:29:32.597Z,87.51
2019-04-28T07:32:02.287Z,90.36
2019-04-28T07:34:31.612Z,92.36
2019-04-28T07:37:00.960Z,90.50
2019-04-28T07:39:30.418Z,91.64
2019-04-28T07:41:59.745Z,95.38
2019-04-28T07:44:29.065Z,90.62
2019-04-28T07:46:58.406Z,85.87
2019-04-28T07:49:27.794Z,86.40
2019-04-28T07:52:08.046Z,90.64
2019-04-28T07:54:40.010Z,84.60
2019-04-28T07:57:08.387Z,88.48
2019-04-28T07:59:37.706Z,87.68
2019-04-28T08:02:07.092Z,83.94
2019-04-28T08:04:36.417Z,85.47
2019-04-28T08:07:05.736Z,85.77
2019-04-28T08:09:35.077Z,87.66
2019-04-28T08:12:04.623Z,94.87
2019-04-28T08:14:33.940Z,100.00
2019-04-28T08:17:03.269Z,100.00
2019-04-28T08:19:32.591Z,100.00
2019-04-28T08:22:02.104Z,100.00
2019-04-28T08:24:31.430Z,100.00
2019-04-28T08:27:00.748Z,100.00
2019-04-28T08:29:30.086Z,100.00
2019-04-28T08:32:13.290Z,100.00
2019-04-28T08:34:42.692Z,100.00
2019-04-28T08:37:12.014Z,100.00
2019-04-28T08:39:41.333Z,100.00
2019-04-28T08:42:10.665Z,100.00
2019-04-28T08:44:40.223Z,100.00
2019-04-28T08:47:09.553Z,100.00
2019-04-28T08:49:38.870Z,100.00
2019-04-28T08:52:08.193Z,100.00
2019-04-28T08:54:37.525Z,100.00
2019-04-28T08:57:06.847Z,100.00
2019-04-28T08:59:36.114Z,100.00
2019-04-28T09:02:05.437Z,100.00
2019-04-28T09:04:34.758Z,97.41
2019-04-28T09:07:04.085Z,96.30
2019-04-28T09:09:33.410Z,97.46
2019-04-28T09:12:02.746Z,97.68
2019-04-28T09:14:32.065Z,92.81
2019-04-28T09:17:01.386Z,99.29
2019-04-28T09:19:30.722Z,100.00
2019-04-28T09:22:00.041Z,100.00
2019-04-28T09:24:29.558Z,100.00
2019-04-28T09:26:58.878Z,100.00
2019-04-28T09:29:28.198Z,100.00
2019-04-28T09:31:57.534Z,100.00
2019-04-28T09:34:28.551Z,100.00
2019-04-28T09:36:58.066Z,100.00
2019-04-28T09:39:41.300Z,100.00
2019-04-28T09:42:30.382Z,99.48
2019-04-28T09:45:05.672Z,100.00
2019-04-28T09:47:35.004Z,100.00
2019-04-28T09:50:06.474Z,99.91
2019-04-28T09:52:36.272Z,96.52
2019-04-28T09:55:06.525Z,92.27
2019-04-28T09:57:35.875Z,85.57
2019-04-28T10:00:09.504Z,86.31
2019-04-28T10:02:39.024Z,84.16
2019-04-28T10:05:09.777Z,83.91
2019-04-28T10:07:39.185Z,74.27
2019-04-28T10:10:09.243Z,73.64
2019-04-28T10:12:38.578Z,71.72
2019-04-28T10:15:09.026Z,67.20
2019-04-28T10:17:38.439Z,72.53
2019-04-28T10:20:08.200Z,72.53
2019-04-28T10:22:37.523Z,73.03
2019-04-28T10:25:08.345Z,70.51
2019-04-28T10:27:37.734Z,71.12
2019-04-28T10:30:10.816Z,74.34
2019-04-28T10:32:40.136Z,82.22
2019-04-28T10:35:10.268Z,95.73
2019-04-28T10:37:39.605Z,100.00
2019-04-28T10:40:20.270Z,100.00
2019-04-28T10:42:49.588Z,100.00
2019-04-28T10:45:20.576Z,100.00
2019-04-28T10:47:49.903Z,100.00
2019-04-28T10:50:19.372Z,100.00
2019-04-28T10:52:48.708Z,100.00
2019-04-28T10:55:18.029Z,100.00
2019-04-28T10:57:47.358Z,100.00
2019-04-28T11:00:18.340Z,100.00
2019-04-28T11:02:47.667Z,100.00
2019-04-28T11:05:21.648Z,100.00
2019-04-28T11:07:51.614Z,100.00
2019-04-28T11:13:19.604Z,97.82
2019-04-28T11:15:48.921Z,98.68
2019-04-28T11:20:58.854Z,100.00
2019-04-28T11:23:28.178Z,100.00
2019-04-28T11:25:57.527Z,96.25
2019-04-28T11:28:26.857Z,96.72
2019-04-28T11:30:56.176Z,95.13
2019-04-28T11:33:44.672Z,100.00
2019-04-28T11:42:03.696Z,100.00
2019-04-28T11:44:33.019Z,100.00
2019-04-28T11:50:02.416Z,100.00
2019-04-28T11:52:31.740Z,100.00
2019-04-28T11:55:01.064Z,100.00
2019-04-28T11:57:30.485Z,100.00
2019-04-28T11:59:59.808Z,100.00
2019-04-28T12:02:29.137Z,100.00
2019-04-28T12:05:44.007Z,100.00
2019-04-28T12:17:26.283Z,100.00
2019-04-28T12:22:50.847Z,100.00
2019-04-28T12:25:20.174Z,100.00
2019-04-28T12:27:49.515Z,100.00
2019-04-28T12:30:18.861Z,100.00
2019-04-28T12:32:48.447Z,100.00
2019-04-28T12:35:18.558Z,100.00
2019-04-28T12:37:54.538Z,100.00
2019-04-28T12:40:23.864Z,100.00
2019-04-28T12:42:53.188Z,100.00
2019-04-28T12:45:34.493Z,100.00
2019-04-28T12:48:12.695Z,100.00
2019-04-28T12:51:01.141Z,100.00
2019-04-28T12:53:30.530Z,99.25
2019-04-28T12:55:59.856Z,98.80
2019-04-28T12:58:29.181Z,93.48
2019-04-28T13:01:17.614Z,93.13
2019-04-28T13:09:22.326Z,84.73
2019-04-28T13:11:51.642Z,79.79
2019-04-28T13:14:20.962Z,81.14
2019-04-28T13:16:50.328Z,77.52
2019-04-28T13:19:19.653Z,75.45
2019-04-28T13:21:48.967Z,84.26
2019-04-28T13:24:18.303Z,86.94
2019-04-28T13:26:47.636Z,88.43
2019-04-28T13:29:16.968Z,83.40
2019-04-28T13:31:46.301Z,82.29
2019-04-28T13:36:55.942Z,80.07
2019-04-28T13:42:21.247Z,79.41
2019-04-28T13:47:30.964Z,70.97
2019-04-28T13:50:19.419Z,69.35
2019-04-28T13:52:48.993Z,70.23
2019-04-28T14:04:09.186Z,70.26
2019-04-28T14:09:34.458Z,69.67
2019-04-28T14:14:42.545Z,69.58
2019-04-28T14:17:11.942Z,68.42
2019-04-28T14:19:41.269Z,67.78
2019-04-28T14:22:10.605Z,64.61
2019-04-28T14:24:39.946Z,69.64
2019-04-28T14:27:09.315Z,70.39
2019-04-28T14:29:38.705Z,61.45
2019-04-28T14:32:08.001Z,60.50
2019-04-28T14:34:37.316Z,61.34
2019-04-28T14:37:06.653Z,62.40
2019-04-28T14:39:36.208Z,60.02
2019-04-28T14:42:05.529Z,58.27
2019-04-28T14:44:34.886Z,62.88
2019-04-28T14:47:04.246Z,61.10
2019-04-28T14:49:33.581Z,62.41
2019-04-28T14:52:02.900Z,58.20
2019-04-28T14:54:32.520Z,58.20
2019-04-28T14:57:01.854Z,60.50
2019-04-28T14:59:43.865Z,63.61
2019-04-28T15:02:32.336Z,63.61
2019-04-28T15:05:20.781Z,62.97
2019-04-28T15:11:05.332Z,67.28
2019-04-28T15:13:34.923Z,61.37
2019-04-28T15:16:04.208Z,63.53
2019-04-28T15:18:33.544Z,66.78
2019-04-28T15:21:02.941Z,66.72
2019-04-28T15:23:32.261Z,66.72
2019-04-28T15:26:01.598Z,68.26
2019-04-28T15:28:30.925Z,64.71
2019-04-28T15:31:00.244Z,62.75
2019-04-28T15:33:29.577Z,58.48
2019-04-28T15:35:58.900Z,61.91
2019-04-28T15:38:28.220Z,60.82
2019-04-28T15:40:57.553Z,64.29
2019-04-28T15:43:45.972Z,64.43
2019-04-28T15:46:27.958Z,67.96
2019-04-28T15:48:57.276Z,69.53
2019-04-28T15:51:26.597Z,59.14
2019-04-28T15:53:55.934Z,57.67
2019-04-28T15:59:34.352Z,56.70
2019-04-28T16:02:03.668Z,60.93
2019-04-28T16:04:32.998Z,58.58
2019-04-28T16:07:08.173Z,56.58
2019-04-28T16:09:41.023Z,57.55
2019-04-28T16:12:15.922Z,60.15
2019-04-28T16:14:45.241Z,61.98
2019-04-28T16:17:14.562Z,64.84
2019-04-28T16:19:43.898Z,64.70
2019-04-28T16:22:13.213Z,61.26
2019-04-28T16:24:42.544Z,58.90
2019-04-28T16:27:11.881Z,58.25
2019-04-28T16:29:41.202Z,59.01
2019-04-28T16:32:16.471Z,57.62
2019-04-28T16:34:45.805Z,60.83
2019-04-28T16:37:15.126Z,60.45
2019-04-28T16:39:44.444Z,60.51
2019-04-28T16:42:14.287Z,62.01
2019-04-28T16:44:44.113Z,62.87
2019-04-28T16:47:25.686Z,62.51
2019-04-28T16:49:55.006Z,63.99
2019-04-28T16:52:24.421Z,61.38
2019-04-28T16:55:13.148Z,66.20
2019-04-28T17:00:57.658Z,63.90
2019-04-28T17:06:36.145Z,65.43
2019-04-28T17:11:54.077Z,67.88
2019-04-28T17:14:23.402Z,69.21
2019-04-28T17:16:52.721Z,68.98
2019-04-28T17:19:22.193Z,69.71
2019-04-28T17:21:51.515Z,74.51
2019-04-28T17:24:20.858Z,73.22
2019-04-28T17:26:50.265Z,77.06
2019-04-28T17:29:19.667Z,73.06
2019-04-28T17:31:48.921Z,74.73
2019-04-28T17:34:23.526Z,73.57
2019-04-28T17:36:52.855Z,75.87
2019-04-28T17:42:02.622Z,78.34
2019-04-28T17:44:32.109Z,72.38
2019-04-28T17:47:01.530Z,74.19
2019-04-28T17:52:09.946Z,76.81
2019-04-28T17:54:39.289Z,75.22
2019-04-28T17:57:08.892Z,74.26
2019-04-28T17:59:38.230Z,75.03
2019-04-28T18:05:47.297Z,74.25
2019-04-28T18:10:56.903Z,77.55
2019-04-28T18:13:26.217Z,75.90
2019-04-28T18:16:14.680Z,78.14
2019-04-28T18:19:03.113Z,84.61
2019-04-28T18:21:32.530Z,80.95
2019-04-28T18:24:01.853Z,79.74
2019-04-28T18:26:31.167Z,81.29
2019-04-28T18:29:00.508Z,81.51
2019-04-28T18:34:44.390Z,84.03
2019-04-28T18:37:32.956Z,87.14
2019-04-28T18:40:21.419Z,87.98
2019-04-28T18:43:09.869Z,86.39
2019-04-28T18:45:39.268Z,89.80
2019-04-28T18:48:08.606Z,90.84
2019-04-28T18:50:37.931Z,88.82
2019-04-28T18:53:07.283Z,89.92
2019-04-28T18:55:36.648Z,92.10
2019-04-28T18:58:05.964Z,93.09
2019-04-28T19:03:16.263Z,90.87
2019-04-28T19:17:44.401Z,94.00
2019-04-28T19:20:13.887Z,94.46
2019-04-28T19:23:02.347Z,91.60
2019-04-28T19:25:31.665Z,92.66
2019-04-28T19:28:00.984Z,94.71
2019-04-28T19:30:30.385Z,93.67
2019-04-28T19:32:59.721Z,89.94
2019-04-28T19:35:29.038Z,86.68
2019-04-28T19:38:04.407Z,88.88
2019-04-28T19:40:33.727Z,87.02
2019-04-28T19:43:03.066Z,86.51
2019-04-28T19:48:27.843Z,94.98
2019-04-28T19:50:57.158Z,92.64
2019-04-28T19:53:26.545Z,92.89
2019-04-28T19:56:15.022Z,87.49
2019-04-28T20:01:53.465Z,95.44
2019-04-28T20:04:22.778Z,94.29
2019-04-28T20:06:52.092Z,93.70
2019-04-28T20:09:21.446Z,90.96
2019-04-28T20:11:50.763Z,92.58
2019-04-28T20:14:32.775Z,89.51
2019-04-28T20:17:02.091Z,91.78
2019-04-28T20:19:31.411Z,90.08
2019-04-28T20:22:00.737Z,91.43
2019-04-28T20:24:30.054Z,95.22
2019-04-28T20:26:59.383Z,91.77
2019-04-28T20:29:28.786Z,90.58
2019-04-28T20:31:58.389Z,92.66
2019-04-28T20:34:27.730Z,94.47
2019-04-28T20:37:16.178Z,95.45
2019-04-28T20:42:45.711Z,98.27
2019-04-28T20:48:10.961Z,97.77
2019-04-28T20:50:40.285Z,97.92
2019-04-28T20:53:09.607Z,100.00
2019-04-28T20:55:39.005Z,100.00
2019-04-28T20:58:08.275Z,100.00
2019-04-28T21:00:37.625Z,100.00
2019-04-28T21:03:06.952Z,99.53
2019-04-28T21:05:36.287Z,100.00
2019-04-28T21:08:05.619Z,100.00
2019-04-28T21:10:38.156Z,99.37
2019-04-28T21:13:25.167Z,99.30
2019-04-28T21:15:54.524Z,99.90
2019-04-28T21:18:23.825Z,100.00
2019-04-28T21:20:53.415Z,100.00
2019-04-28T21:23:22.742Z,100.00
2019-04-28T21:25:52.065Z,100.00
2019-04-28T21:28:27.480Z,100.00
2019-04-28T21:30:56.801Z,100.00
2019-04-28T21:33:26.145Z,100.00
2019-04-28T21:35:55.485Z,100.00
2019-04-28T21:38:24.808Z,100.00
2019-04-28T21:40:54.288Z,100.00
2019-04-28T21:43:42.753Z,100.00
2019-04-28T21:49:40.294Z,100.00
2019-04-28T21:52:09.632Z,100.00
2019-04-28T21:54:38.962Z,100.00
2019-04-28T21:57:08.294Z,100.00
2019-04-28T21:59:37.650Z,100.00
2019-04-28T22:04:47.094Z,100.00
2019-04-28T22:07:23.024Z,100.00
2019-04-28T22:09:52.362Z,100.00
2019-04-28T22:12:21.688Z,100.00
2019-04-28T22:14:51.038Z,100.00
2019-04-28T22:17:20.365Z,100.00
2019-04-28T22:19:49.708Z,100.00
2019-04-28T22:22:19.030Z,100.00
2019-04-28T22:25:07.483Z,100.00
2019-04-28T22:30:32.436Z,100.00
2019-04-28T22:33:01.762Z,100.00
2019-04-28T22:35:43.182Z,100.00
2019-04-28T22:38:12.515Z,100.00
2019-04-28T22:40:41.908Z,100.00
2019-04-28T22:43:11.320Z,100.00
2019-04-28T22:45:53.298Z,100.00
2019-04-28T22:49:02.534Z,100.00
2019-04-28T23:00:05.225Z,100.00
2019-04-28T23:05:30.068Z,100.00
2019-04-28T23:07:59.391Z,100.00
2019-04-28T23:10:28.713Z,100.00
2019-04-28T23:12:58.049Z,100.00
2019-04-28T23:15:27.382Z,100.00
2019-04-28T23:17:56.777Z,100.00
2019-04-28T23:23:26.125Z,100.00
2019-04-28T23:25:55.681Z,100.00
2019-04-28T23:28:25.005Z,100.00
2019-04-28T23:30:54.346Z,100.00
2019-04-28T23:33:23.674Z,100.00
2019-04-28T23:35:53.006Z,100.00
2019-04-28T23:38:22.333Z,100.00
2019-04-28T23:41:10.831Z,100.00
2019-04-28T23:43:40.172Z,100.00
2019-04-28T23:46:09.495Z,100.00
2019-04-28T23:48:38.829Z,100.00
2019-04-28T23:54:08.288Z,100.00
2019-04-28T23:56:37.888Z,100.00
2019-04-28T23:59:07.222Z,100.00
